Amarant — CQSF — position and weather

sailwx.info

Track history (hours):
 
Tides and Currents Weather Stations Pressure Air Temp Water Temp Dewpoint Dewpoint Depression Visibility Wind Speed Wind Dir Waves Ship Positions

Amarant

Last reported at 2015-Jan-29 22:20 UTC. Time now 2015-Jan-30 18:34 UTC.
Position N 57°30' E 009°21'.

Length 120 m; draft 7.5 m.

Type: Tanker. MMSI: 255623000.

Date/timePositionNaut miles runAvg speedWind from/ knotsBaromVisibWave heightAir tempDewpointWater temp
2015-Jan-29 22:20N 57°30' E 009°21'810.7
2015-Jan-29 21:33N 57°35' E 009°34'1110.4
2015-Jan-29 20:32N 57°40' E 009°51'2210.7
2015-Jan-29 18:31N 57°48' E 010°29'1010.0
2015-Jan-29 17:33N 57°49' E 010°47'1211.7
2015-Jan-29 16:33N 57°41' E 011°03'1212.1
2015-Jan-29 15:33N 57°32' E 011°19'1212.2
2015-Jan-29 14:33N 57°22' E 011°30'1212.3
2015-Jan-29 13:33N 57°10' E 011°38'1211.9
2015-Jan-29 12:33N 56°59' E 011°46'1212.2
2015-Jan-29 11:33N 56°48' E 011°53'1211.8
2015-Jan-29 10:33N 56°36' E 011°58'1211.6
2015-Jan-29 09:33N 56°26' E 012°06'1212.0
2015-Jan-29 08:33N 56°16' E 012°20'1313.2
2015-Jan-29 07:33N 56°06' E 012°35'1312.5
2015-Jan-29 06:33N 55°55' E 012°45'1312.7
2015-Jan-29 05:33N 55°42' E 012°41'9 9.4
2015-Jan-29 04:33N 55°33' E 012°43'1111.3
2015-Jan-29 03:33N 55°22' E 012°40'8 8.3
2015-Jan-29 02:33N 55°16' E 012°51'9 8.5
2015-Jan-29 01:33N 55°16' E 013°06'8 8.4
2015-Jan-29 00:33N 55°15' E 013°21'37 7.5
2015-Jan-28 19:33N 55°21' E 014°26'13 8.3
2015-Jan-28 18:03N 55°30' E 014°42'5 9.8
2015-Jan-28 17:33N 55°32' E 014°50'12210.8
2015-Jan-28 06:11N 57°05' E 017°13'812.6
2015-Jan-28 05:33N 57°13' E 017°16'1212.4
2015-Jan-28 04:33N 57°25' E 017°22'1212.4
2015-Jan-28 03:33N 57°37' E 017°26'68 7.3
2015-Jan-27 18:20N 58°43' E 017°52'1012.6
2015-Jan-27 17:34N 58°52' E 018°00'3 3.2
2015-Jan-27 16:28N 58°55' E 017°58'0 0.0
2015-Jan-27 15:25N 58°55' E 017°58'0 0.0
2015-Jan-27 14:28N 58°55' E 017°58'0 0.0
2015-Jan-27 13:31N 58°55' E 017°58'0 0.0
2015-Jan-27 12:31N 58°55' E 017°58'0 0.0
2015-Jan-27 11:31N 58°55' E 017°58'0 0.0
2015-Jan-27 10:31N 58°55' E 017°58'0 0.0
2015-Jan-27 09:31N 58°55' E 017°58'0 0.0
2015-Jan-27 08:31N 58°55' E 017°58'0 0.0
2015-Jan-27 07:31N 58°55' E 017°58'0 0.0
2015-Jan-27 06:28N 58°55' E 017°58'0 0.0
2015-Jan-27 05:31N 58°55' E 017°58'0 0.0
2015-Jan-27 04:31N 58°55' E 017°58'0 0.0
2015-Jan-27 03:31N 58°55' E 017°58'0 0.0
2015-Jan-27 02:28N 58°55' E 017°58'0 0.0
2015-Jan-27 01:31N 58°55' E 017°58'0 0.0
2015-Jan-27 00:31N 58°55' E 017°58'0 0.0
2015-Jan-26 23:31N 58°55' E 017°58'0 0.0
2015-Jan-26 22:31N 58°55' E 017°58'0 0.0
2015-Jan-26 21:31N 58°55' E 017°58'0 0.0
2015-Jan-26 20:28N 58°55' E 017°58'0 0.0
2015-Jan-26 19:31N 58°55' E 017°58'0 0.0
2015-Jan-26 18:31N 58°55' E 017°58'0 0.0
2015-Jan-26 17:31N 58°55' E 017°58'0 0.0
2015-Jan-26 16:31N 58°55' E 017°58'0 0.0
2015-Jan-26 15:31N 58°55' E 017°58'0 0.0
2015-Jan-26 14:31N 58°55' E 017°58'0 0.0
2015-Jan-26 13:31N 58°55' E 017°58'0 0.0
2015-Jan-26 12:31N 58°55' E 017°58'0 0.0
2015-Jan-26 11:28N 58°55' E 017°58'0 0.0
2015-Jan-26 10:31N 58°55' E 017°58'0 0.0
2015-Jan-26 09:31N 58°55' E 017°58'0 0.0
2015-Jan-26 08:31N 58°55' E 017°58'0 0.0
2015-Jan-26 07:31N 58°55' E 017°58'0 0.0
2015-Jan-26 06:25N 58°55' E 017°58'0 0.0
2015-Jan-26 05:30N 58°55' E 017°58'0 0.0
2015-Jan-26 04:30N 58°55' E 017°58'0 0.0
2015-Jan-26 03:24N 58°55' E 017°58'0 0.0
2015-Jan-26 02:30N 58°55' E 017°58'0 0.0
2015-Jan-26 01:30N 58°55' E 017°58'0 0.0
2015-Jan-26 00:33N 58°55' E 017°58'0 0.0
2015-Jan-25 23:33N 58°55' E 017°58'0 0.0
2015-Jan-25 22:33N 58°55' E 017°58'0 0.0
2015-Jan-25 21:33N 58°55' E 017°58'0 0.0
2015-Jan-25 20:33N 58°55' E 017°58'0 0.0
2015-Jan-25 19:33N 58°55' E 017°58'0 0.0
2015-Jan-25 18:30N 58°55' E 017°58'0 0.0
2015-Jan-25 17:33N 58°55' E 017°58'0 0.0
2015-Jan-25 16:33N 58°55' E 017°58'5 5.3
2015-Jan-25 15:33N 58°50' E 017°59'8413.1
2015-Jan-25 09:09N 57°32' E 017°03'813.3
2015-Jan-25 08:33N 57°25' E 016°56'1313.3
2015-Jan-25 07:33N 57°12' E 016°48'1413.4
2015-Jan-25 06:31N 56°59' E 016°38'93 2.8
2015-Jan-23 21:23N 55°37' E 015°19'1213.9
2015-Jan-23 20:33N 55°31' E 015°02'1413.9
2015-Jan-23 19:33N 55°24' E 014°41'1413.7
2015-Jan-23 18:33N 55°13' E 014°25'1413.8
2015-Jan-23 17:33N 55°02' E 014°10'1313.3
2015-Jan-23 16:33N 54°57' E 013°49'1413.5
2015-Jan-23 15:33N 54°53' E 013°26'1413.7
2015-Jan-23 14:33N 54°49' E 013°04'1313.0
2015-Jan-23 13:34N 54°45' E 012°43'1313.1
2015-Jan-23 12:33N 54°37' E 012°24'1212.0
2015-Jan-23 11:33N 54°27' E 012°13'1211.7
2015-Jan-23 10:34N 54°24' E 011°54'1212.4
2015-Jan-23 09:34N 54°28' E 011°34'1212.3
2015-Jan-23 08:33N 54°34' E 011°14'1212.1
2015-Jan-23 07:33N 54°35' E 010°54'1313.3
2015-Jan-23 06:33N 54°33' E 010°31'1212.2
2015-Jan-23 05:34N 54°26' E 010°14'5 4.9
2015-Jan-23 04:33N 54°22' E 010°08'5 5.0
2015-Jan-23 03:33N 54°21' E 009°60'8 7.7
2015-Jan-23 02:33N 54°21' E 009°47'8 7.5
2015-Jan-23 01:33N 54°16' E 009°38'8 7.4
2015-Jan-23 00:32N 54°11' E 009°28'7 7.4
2015-Jan-22 23:33N 54°06' E 009°20'8 8.0
2015-Jan-22 22:34N 53°58' E 009°16'6 6.1
2015-Jan-22 21:33N 53°54' E 009°09'2 1.5
2015-Jan-22 20:33N 53°53' E 009°06'2 2.4
2015-Jan-22 19:33N 53°53' E 009°10'1313.0
2015-Jan-22 18:33N 53°44' E 009°26'1313.4
2015-Jan-22 17:33N 53°34' E 009°41'10 9.8
2015-Jan-22 16:33N 53°32' E 009°57'0 0.0
2015-Jan-22 15:33N 53°32' E 009°58'0 0.0
2015-Jan-22 14:33N 53°32' E 009°58'0 0.0
2015-Jan-22 13:27N 53°32' E 009°58'0 0.0
2015-Jan-22 12:30N 53°32' E 009°58'0 0.0
2015-Jan-22 11:24N 53°32' E 009°58'0 0.0
2015-Jan-22 10:27N 53°32' E 009°58'1 0.9
2015-Jan-22 09:34N 53°32' E 009°57'4 3.8
2015-Jan-22 08:33N 53°29' E 009°57'0 0.0
2015-Jan-22 07:33N 53°29' E 009°57'0 0.0
2015-Jan-22 06:33N 53°29' E 009°57'0 0.0
2015-Jan-22 05:33N 53°29' E 009°57'0 0.0
2015-Jan-22 04:33N 53°29' E 009°57'0 0.0
2015-Jan-22 03:33N 53°29' E 009°57'0 0.0
2015-Jan-22 02:33N 53°29' E 009°57'0 0.0
2015-Jan-22 01:33N 53°29' E 009°57'0 0.0
2015-Jan-22 00:33N 53°29' E 009°57'0 0.0
2015-Jan-21 23:33N 53°29' E 009°57'0 0.0
2015-Jan-21 22:50N 53°29' E 009°57'0 0.0
2015-Jan-21 22:46N 53°29' E 009°57'0 0.0
2015-Jan-21 22:33N 53°29' E 009°57'0 0.0
2015-Jan-21 21:33N 53°29' E 009°57'0 0.0
2015-Jan-21 20:33N 53°29' E 009°57'0 0.0
2015-Jan-21 19:33N 53°29' E 009°57'0 0.1
2015-Jan-21 18:33N 53°29' E 009°58'0 0.0
2015-Jan-21 17:33N 53°29' E 009°58'0 0.0
2015-Jan-21 16:33N 53°29' E 009°58'0 0.0
2015-Jan-21 15:33N 53°29' E 009°58'0 0.0
2015-Jan-21 14:33N 53°29' E 009°58'0 0.0
2015-Jan-21 13:33N 53°29' E 009°58'0 0.0
2015-Jan-21 12:33N 53°29' E 009°58'0 0.0
2015-Jan-21 11:33N 53°29' E 009°58'0 0.0
2015-Jan-21 10:33N 53°29' E 009°58'0 0.0
2015-Jan-21 09:33N 53°29' E 009°58'0 0.0
2015-Jan-21 08:33N 53°29' E 009°58'0 0.0
2015-Jan-21 07:34N 53°29' E 009°58'0 0.0
2015-Jan-21 06:33N 53°29' E 009°58'0 0.0
2015-Jan-21 05:33N 53°29' E 009°58'0 0.0
2015-Jan-21 04:33N 53°29' E 009°58'0 0.0
2015-Jan-21 03:33N 53°29' E 009°58'0 0.0
2015-Jan-21 02:33N 53°29' E 009°58'0 0.0
2015-Jan-21 01:33N 53°29' E 009°58'2 2.3
2015-Jan-21 00:33N 53°31' E 009°56'1312.5
2015-Jan-20 23:33N 53°35' E 009°36'1616.2
2015-Jan-20 22:33N 53°49' E 009°22'1312.7
2015-Jan-20 21:34N 53°51' E 009°01'1413.7
2015-Jan-20 20:34N 53°56' E 008°39'1615.8
2015-Jan-20 19:34N 53°60' E 008°13'1615.5
2015-Jan-20 18:33N 53°56' E 007°47'1514.5
2015-Jan-20 17:30N 53°53' E 007°22'3913.3
2015-Jan-20 14:33N 53°44' E 006°17'1313.3
2015-Jan-20 13:33N 53°40' E 005°56'1313.5
2015-Jan-20 12:33N 53°35' E 005°35'1313.3
2015-Jan-20 11:33N 53°31' E 005°13'1313.3
2015-Jan-20 10:33N 53°27' E 004°52'1212.2
2015-Jan-20 09:33N 53°18' E 004°38'1413.2
2015-Jan-20 08:31N 53°06' E 004°27'5350.2
2015-Jan-20 07:27N 53°59' E 004°16'7867.7
2015-Jan-20 06:18N 52°41' E 004°01'5314.0
2015-Jan-20 02:30N 51°53' E 003°22'1713.1
2015-Jan-20 01:12N 51°36' E 003°23'914.4
2015-Jan-20 00:33N 51°29' E 003°30'1010.1
2015-Jan-19 23:33N 51°23' E 003°44'9 9.2
2015-Jan-19 22:33N 51°25' E 003°58'  
Track history (hours):
 
Tides and Currents Weather Stations Pressure Air Temp Water Temp Dewpoint Dewpoint Depression Visibility Wind Speed Wind Dir Waves Ship Positions

Amarant

Last reported at 2015-Jan-29 22:20 UTC. Time now 2015-Jan-30 18:34 UTC.
Position N 57°30' E 009°21'.

Length 120 m; draft 7.5 m.

Type: Tanker. MMSI: 255623000.

Date/timePositionNaut miles runAvg speedWind from/ knotsBaromVisibWave heightAir tempDewpointWater temp
2015-Jan-29 22:20N 57°30' E 009°21'810.7
2015-Jan-29 21:33N 57°35' E 009°34'1110.4
2015-Jan-29 20:32N 57°40' E 009°51'2210.7
2015-Jan-29 18:31N 57°48' E 010°29'1010.0
2015-Jan-29 17:33N 57°49' E 010°47'1211.7
2015-Jan-29 16:33N 57°41' E 011°03'1212.1
2015-Jan-29 15:33N 57°32' E 011°19'1212.2
2015-Jan-29 14:33N 57°22' E 011°30'1212.3
2015-Jan-29 13:33N 57°10' E 011°38'1211.9
2015-Jan-29 12:33N 56°59' E 011°46'1212.2
2015-Jan-29 11:33N 56°48' E 011°53'1211.8
2015-Jan-29 10:33N 56°36' E 011°58'1211.6
2015-Jan-29 09:33N 56°26' E 012°06'1212.0
2015-Jan-29 08:33N 56°16' E 012°20'1313.2
2015-Jan-29 07:33N 56°06' E 012°35'1312.5
2015-Jan-29 06:33N 55°55' E 012°45'1312.7
2015-Jan-29 05:33N 55°42' E 012°41'9 9.4
2015-Jan-29 04:33N 55°33' E 012°43'1111.3
2015-Jan-29 03:33N 55°22' E 012°40'8 8.3
2015-Jan-29 02:33N 55°16' E 012°51'9 8.5
2015-Jan-29 01:33N 55°16' E 013°06'8 8.4
2015-Jan-29 00:33N 55°15' E 013°21'37 7.5
2015-Jan-28 19:33N 55°21' E 014°26'13 8.3
2015-Jan-28 18:03N 55°30' E 014°42'5 9.8
2015-Jan-28 17:33N 55°32' E 014°50'12210.8
2015-Jan-28 06:11N 57°05' E 017°13'812.6
2015-Jan-28 05:33N 57°13' E 017°16'1212.4
2015-Jan-28 04:33N 57°25' E 017°22'1212.4
2015-Jan-28 03:33N 57°37' E 017°26'68 7.3
2015-Jan-27 18:20N 58°43' E 017°52'1012.6
2015-Jan-27 17:34N 58°52' E 018°00'3 3.2
2015-Jan-27 16:28N 58°55' E 017°58'0 0.0
2015-Jan-27 15:25N 58°55' E 017°58'0 0.0
2015-Jan-27 14:28N 58°55' E 017°58'0 0.0
2015-Jan-27 13:31N 58°55' E 017°58'0 0.0
2015-Jan-27 12:31N 58°55' E 017°58'0 0.0
2015-Jan-27 11:31N 58°55' E 017°58'0 0.0
2015-Jan-27 10:31N 58°55' E 017°58'0 0.0
2015-Jan-27 09:31N 58°55' E 017°58'0 0.0
2015-Jan-27 08:31N 58°55' E 017°58'0 0.0
2015-Jan-27 07:31N 58°55' E 017°58'0 0.0
2015-Jan-27 06:28N 58°55' E 017°58'0 0.0
2015-Jan-27 05:31N 58°55' E 017°58'0 0.0
2015-Jan-27 04:31N 58°55' E 017°58'0 0.0
2015-Jan-27 03:31N 58°55' E 017°58'0 0.0
2015-Jan-27 02:28N 58°55' E 017°58'0 0.0
2015-Jan-27 01:31N 58°55' E 017°58'0 0.0
2015-Jan-27 00:31N 58°55' E 017°58'0 0.0
2015-Jan-26 23:31N 58°55' E 017°58'0 0.0
2015-Jan-26 22:31N 58°55' E 017°58'0 0.0
2015-Jan-26 21:31N 58°55' E 017°58'0 0.0
2015-Jan-26 20:28N 58°55' E 017°58'0 0.0
2015-Jan-26 19:31N 58°55' E 017°58'0 0.0
2015-Jan-26 18:31N 58°55' E 017°58'0 0.0
2015-Jan-26 17:31N 58°55' E 017°58'0 0.0
2015-Jan-26 16:31N 58°55' E 017°58'0 0.0
2015-Jan-26 15:31N 58°55' E 017°58'0 0.0
2015-Jan-26 14:31N 58°55' E 017°58'0 0.0
2015-Jan-26 13:31N 58°55' E 017°58'0 0.0
2015-Jan-26 12:31N 58°55' E 017°58'0 0.0
2015-Jan-26 11:28N 58°55' E 017°58'0 0.0
2015-Jan-26 10:31N 58°55' E 017°58'0 0.0
2015-Jan-26 09:31N 58°55' E 017°58'0 0.0
2015-Jan-26 08:31N 58°55' E 017°58'0 0.0
2015-Jan-26 07:31N 58°55' E 017°58'0 0.0
2015-Jan-26 06:25N 58°55' E 017°58'0 0.0
2015-Jan-26 05:30N 58°55' E 017°58'0 0.0
2015-Jan-26 04:30N 58°55' E 017°58'0 0.0
2015-Jan-26 03:24N 58°55' E 017°58'0 0.0
2015-Jan-26 02:30N 58°55' E 017°58'0 0.0
2015-Jan-26 01:30N 58°55' E 017°58'0 0.0
2015-Jan-26 00:33N 58°55' E 017°58'0 0.0
2015-Jan-25 23:33N 58°55' E 017°58'0 0.0
2015-Jan-25 22:33N 58°55' E 017°58'0 0.0
2015-Jan-25 21:33N 58°55' E 017°58'0 0.0
2015-Jan-25 20:33N 58°55' E 017°58'0 0.0
2015-Jan-25 19:33N 58°55' E 017°58'0 0.0
2015-Jan-25 18:30N 58°55' E 017°58'0 0.0
2015-Jan-25 17:33N 58°55' E 017°58'0 0.0
2015-Jan-25 16:33N 58°55' E 017°58'5 5.3
2015-Jan-25 15:33N 58°50' E 017°59'8413.1
2015-Jan-25 09:09N 57°32' E 017°03'813.3
2015-Jan-25 08:33N 57°25' E 016°56'1313.3
2015-Jan-25 07:33N 57°12' E 016°48'1413.4
2015-Jan-25 06:31N 56°59' E 016°38'93 2.8
2015-Jan-23 21:23N 55°37' E 015°19'1213.9
2015-Jan-23 20:33N 55°31' E 015°02'1413.9
2015-Jan-23 19:33N 55°24' E 014°41'1413.7
2015-Jan-23 18:33N 55°13' E 014°25'1413.8
2015-Jan-23 17:33N 55°02' E 014°10'1313.3
2015-Jan-23 16:33N 54°57' E 013°49'1413.5
2015-Jan-23 15:33N 54°53' E 013°26'1413.7
2015-Jan-23 14:33N 54°49' E 013°04'1313.0
2015-Jan-23 13:34N 54°45' E 012°43'1313.1
2015-Jan-23 12:33N 54°37' E 012°24'1212.0
2015-Jan-23 11:33N 54°27' E 012°13'1211.7
2015-Jan-23 10:34N 54°24' E 011°54'1212.4
2015-Jan-23 09:34N 54°28' E 011°34'1212.3
2015-Jan-23 08:33N 54°34' E 011°14'1212.1
2015-Jan-23 07:33N 54°35' E 010°54'1313.3
2015-Jan-23 06:33N 54°33' E 010°31'1212.2
2015-Jan-23 05:34N 54°26' E 010°14'5 4.9
2015-Jan-23 04:33N 54°22' E 010°08'5 5.0
2015-Jan-23 03:33N 54°21' E 009°60'8 7.7
2015-Jan-23 02:33N 54°21' E 009°47'8 7.5
2015-Jan-23 01:33N 54°16' E 009°38'8 7.4
2015-Jan-23 00:32N 54°11' E 009°28'7 7.4
2015-Jan-22 23:33N 54°06' E 009°20'8 8.0
2015-Jan-22 22:34N 53°58' E 009°16'6 6.1
2015-Jan-22 21:33N 53°54' E 009°09'2 1.5
2015-Jan-22 20:33N 53°53' E 009°06'2 2.4
2015-Jan-22 19:33N 53°53' E 009°10'1313.0
2015-Jan-22 18:33N 53°44' E 009°26'1313.4
2015-Jan-22 17:33N 53°34' E 009°41'10 9.8
2015-Jan-22 16:33N 53°32' E 009°57'0 0.0
2015-Jan-22 15:33N 53°32' E 009°58'0 0.0
2015-Jan-22 14:33N 53°32' E 009°58'0 0.0
2015-Jan-22 13:27N 53°32' E 009°58'0 0.0
2015-Jan-22 12:30N 53°32' E 009°58'0 0.0
2015-Jan-22 11:24N 53°32' E 009°58'0 0.0
2015-Jan-22 10:27N 53°32' E 009°58'1 0.9
2015-Jan-22 09:34N 53°32' E 009°57'4 3.8
2015-Jan-22 08:33N 53°29' E 009°57'0 0.0
2015-Jan-22 07:33N 53°29' E 009°57'0 0.0
2015-Jan-22 06:33N 53°29' E 009°57'0 0.0
2015-Jan-22 05:33N 53°29' E 009°57'0 0.0
2015-Jan-22 04:33N 53°29' E 009°57'0 0.0
2015-Jan-22 03:33N 53°29' E 009°57'0 0.0
2015-Jan-22 02:33N 53°29' E 009°57'0 0.0
2015-Jan-22 01:33N 53°29' E 009°57'0 0.0
2015-Jan-22 00:33N 53°29' E 009°57'0 0.0
2015-Jan-21 23:33N 53°29' E 009°57'0 0.0
2015-Jan-21 22:50N 53°29' E 009°57'0 0.0
2015-Jan-21 22:46N 53°29' E 009°57'0 0.0
2015-Jan-21 22:33N 53°29' E 009°57'0 0.0
2015-Jan-21 21:33N 53°29' E 009°57'0 0.0
2015-Jan-21 20:33N 53°29' E 009°57'0 0.0
2015-Jan-21 19:33N 53°29' E 009°57'0 0.1
2015-Jan-21 18:33N 53°29' E 009°58'0 0.0
2015-Jan-21 17:33N 53°29' E 009°58'0 0.0
2015-Jan-21 16:33N 53°29' E 009°58'0 0.0
2015-Jan-21 15:33N 53°29' E 009°58'0 0.0
2015-Jan-21 14:33N 53°29' E 009°58'0 0.0
2015-Jan-21 13:33N 53°29' E 009°58'0 0.0
2015-Jan-21 12:33N 53°29' E 009°58'0 0.0
2015-Jan-21 11:33N 53°29' E 009°58'0 0.0
2015-Jan-21 10:33N 53°29' E 009°58'0 0.0
2015-Jan-21 09:33N 53°29' E 009°58'0 0.0
2015-Jan-21 08:33N 53°29' E 009°58'0 0.0
2015-Jan-21 07:34N 53°29' E 009°58'0 0.0
2015-Jan-21 06:33N 53°29' E 009°58'0 0.0
2015-Jan-21 05:33N 53°29' E 009°58'0 0.0
2015-Jan-21 04:33N 53°29' E 009°58'0 0.0
2015-Jan-21 03:33N 53°29' E 009°58'0 0.0
2015-Jan-21 02:33N 53°29' E 009°58'0 0.0
2015-Jan-21 01:33N 53°29' E 009°58'2 2.3
2015-Jan-21 00:33N 53°31' E 009°56'1312.5
2015-Jan-20 23:33N 53°35' E 009°36'1616.2
2015-Jan-20 22:33N 53°49' E 009°22'1312.7
2015-Jan-20 21:34N 53°51' E 009°01'1413.7
2015-Jan-20 20:34N 53°56' E 008°39'1615.8
2015-Jan-20 19:34N 53°60' E 008°13'1615.5
2015-Jan-20 18:33N 53°56' E 007°47'1514.5
2015-Jan-20 17:30N 53°53' E 007°22'3913.3
2015-Jan-20 14:33N 53°44' E 006°17'1313.3
2015-Jan-20 13:33N 53°40' E 005°56'1313.5
2015-Jan-20 12:33N 53°35' E 005°35'1313.3
2015-Jan-20 11:33N 53°31' E 005°13'1313.3
2015-Jan-20 10:33N 53°27' E 004°52'1212.2
2015-Jan-20 09:33N 53°18' E 004°38'1413.2
2015-Jan-20 08:31N 53°06' E 004°27'5350.2
2015-Jan-20 07:27N 53°59' E 004°16'7867.7
2015-Jan-20 06:18N 52°41' E 004°01'5314.0
2015-Jan-20 02:30N 51°53' E 003°22'1713.1
2015-Jan-20 01:12N 51°36' E 003°23'914.4
2015-Jan-20 00:33N 51°29' E 003°30'1010.1
2015-Jan-19 23:33N 51°23' E 003°44'9 9.2
2015-Jan-19 22:33N 51°25' E 003°58'  

Dump ship's entire track history